Terminal Aerodrome Forecast
Issued by NWS

Current Version | Previous Version | Text Only | Print | Product List | Glossary Off
Versions: 1 2 3 4 5 6 7 8 9 10 11 12 13 14 15 16 17

081
FTUS41 KPBZ 281120
TAFHLG
TAF
KHLG 281120Z 2812/2912 29003KT 6SM -SHRA BR OVC015
     FM281600 32005KT 6SM -SHRA BR OVC008
     FM282000 33008KT P6SM OVC015
     FM290300 33005KT P6SM OVC008=

USA.gov is the U.S. government's official web portal to all federal, state and local government web resources and services.